sensor_id;sensor_type;location;lat;lon;timestamp;P1;durP1;ratioP1;P2;durP2;ratioP2
77423;SDS011;66494;47.172;14.678;2023-01-01T00:00:24;7.95;;;4.70;;
77423;SDS011;66494;47.172;14.678;2023-01-01T00:01:24;4.40;;;3.35;;
77423;SDS011;66494;47.172;14.678;2023-01-01T00:02:25;8.43;;;3.72;;
77423;SDS011;66494;47.172;14.678;2023-01-01T00:03:25;7.03;;;3.65;;
77423;SDS011;66494;47.172;14.678;2023-01-01T00:04:25;6.90;;;4.05;;
77423;SDS011;66494;47.172;14.678;2023-01-01T00:05:25;6.47;;;3.80;;
77423;SDS011;66494;47.172;14.678;2023-01-01T00:06:26;9.68;;;4.85;;
77423;SDS011;66494;47.172;14.678;2023-01-01T00:07:26;8.75;;;4.60;;
77423;SDS011;66494;47.172;14.678;2023-01-01T00:08:27;6.68;;;4.43;;
77423;SDS011;66494;47.172;14.678;2023-01-01T00:09:27;10.38;;;5.00;;
77423;SDS011;66494;47.172;14.678;2023-01-01T00:10:46;9.48;;;4.13;;
77423;SDS011;66494;47.172;14.678;2023-01-01T00:11:46;6.68;;;4.03;;
77423;SDS011;66494;47.172;14.678;2023-01-01T00:12:46;7.72;;;4.65;;
77423;SDS011;66494;47.172;14.678;2023-01-01T00:13:47;6.95;;;3.83;;
77423;SDS011;66494;47.172;14.678;2023-01-01T00:14:48;7.15;;;3.90;;
77423;SDS011;66494;47.172;14.678;2023-01-01T00:15:48;7.93;;;3.85;;
77423;SDS011;66494;47.172;14.678;2023-01-01T00:16:49;8.00;;;3.95;;
77423;SDS011;66494;47.172;14.678;2023-01-01T00:17:49;7.88;;;4.93;;
77423;SDS011;66494;47.172;14.678;2023-01-01T00:18:49;7.03;;;4.28;;
77423;SDS011;66494;47.172;14.678;2023-01-01T00:19:49;8.30;;;4.30;;
77423;SDS011;66494;47.172;14.678;2023-01-01T00:20:50;7.45;;;3.88;;
77423;SDS011;66494;47.172;14.678;2023-01-01T00:21:50;5.80;;;3.50;;
77423;SDS011;66494;47.172;14.678;2023-01-01T00:22:50;7.63;;;3.75;;
77423;SDS011;66494;47.172;14.678;2023-01-01T00:23:50;9.60;;;5.13;;
77423;SDS011;66494;47.172;14.678;2023-01-01T00:24:51;6.72;;;4.22;;
77423;SDS011;66494;47.172;14.678;2023-01-01T00:25:51;5.55;;;3.35;;
77423;SDS011;66494;47.172;14.678;2023-01-01T00:26:51;6.40;;;3.67;;
77423;SDS011;66494;47.172;14.678;2023-01-01T00:27:51;9.18;;;4.95;;
77423;SDS011;66494;47.172;14.678;2023-01-01T00:28:51;7.57;;;4.53;;
77423;SDS011;66494;47.172;14.678;2023-01-01T00:29:52;8.18;;;4.88;;
77423;SDS011;66494;47.172;14.678;2023-01-01T00:30:52;6.18;;;3.50;;
77423;SDS011;66494;47.172;14.678;2023-01-01T00:31:52;12.40;;;5.03;;
77423;SDS011;66494;47.172;14.678;2023-01-01T00:32:52;8.60;;;4.57;;
77423;SDS011;66494;47.172;14.678;2023-01-01T00:33:53;9.98;;;5.32;;
77423;SDS011;66494;47.172;14.678;2023-01-01T00:35:54;10.73;;;5.20;;
77423;SDS011;66494;47.172;14.678;2023-01-01T00:36:55;7.15;;;3.78;;
77423;SDS011;66494;47.172;14.678;2023-01-01T00:37:55;5.55;;;3.03;;
77423;SDS011;66494;47.172;14.678;2023-01-01T00:38:56;8.48;;;5.07;;
77423;SDS011;66494;47.172;14.678;2023-01-01T00:39:56;7.60;;;4.10;;
77423;SDS011;66494;47.172;14.678;2023-01-01T00:40:56;7.50;;;2.67;;
77423;SDS011;66494;47.172;14.678;2023-01-01T00:41:56;9.85;;;5.10;;
77423;SDS011;66494;47.172;14.678;2023-01-01T00:42:57;8.35;;;3.92;;
77423;SDS011;66494;47.172;14.678;2023-01-01T00:43:57;7.80;;;4.10;;
77423;SDS011;66494;47.172;14.678;2023-01-01T00:44:57;8.57;;;4.95;;
77423;SDS011;66494;47.172;14.678;2023-01-01T00:45:57;10.45;;;5.32;;
77423;SDS011;66494;47.172;14.678;2023-01-01T00:46:58;7.53;;;4.25;;
77423;SDS011;66494;47.172;14.678;2023-01-01T00:47:58;12.05;;;4.68;;
77423;SDS011;66494;47.172;14.678;2023-01-01T00:48:58;7.00;;;2.92;;
77423;SDS011;66494;47.172;14.678;2023-01-01T00:49:58;4.97;;;2.97;;
77423;SDS011;66494;47.172;14.678;2023-01-01T00:50:59;6.95;;;4.13;;
77423;SDS011;66494;47.172;14.678;2023-01-01T00:51:59;7.60;;;4.38;;
77423;SDS011;66494;47.172;14.678;2023-01-01T00:52:59;7.13;;;3.78;;
77423;SDS011;66494;47.172;14.678;2023-01-01T00:53:59;6.45;;;3.63;;
77423;SDS011;66494;47.172;14.678;2023-01-01T00:54:59;7.40;;;4.20;;
77423;SDS011;66494;47.172;14.678;2023-01-01T00:56:00;9.73;;;4.10;;
77423;SDS011;66494;47.172;14.678;2023-01-01T00:57:00;4.53;;;2.58;;
77423;SDS011;66494;47.172;14.678;2023-01-01T00:58:00;6.43;;;4.13;;
77423;SDS011;66494;47.172;14.678;2023-01-01T00:59:00;8.15;;;3.55;;
77423;SDS011;66494;47.172;14.678;2023-01-01T01:00:01;5.90;;;2.38;;
77423;SDS011;66494;47.172;14.678;2023-01-01T01:01:01;6.53;;;3.85;;
77423;SDS011;66494;47.172;14.678;2023-01-01T01:02:01;5.65;;;3.75;;
77423;SDS011;66494;47.172;14.678;2023-01-01T01:03:02;5.00;;;3.45;;
77423;SDS011;66494;47.172;14.678;2023-01-01T01:04:03;5.65;;;3.40;;
77423;SDS011;66494;47.172;14.678;2023-01-01T01:05:03;9.23;;;3.75;;
77423;SDS011;66494;47.172;14.678;2023-01-01T01:07:04;7.20;;;3.83;;
77423;SDS011;66494;47.172;14.678;2023-01-01T01:08:04;6.05;;;4.07;;
77423;SDS011;66494;47.172;14.678;2023-01-01T01:09:04;7.85;;;3.83;;
77423;SDS011;66494;47.172;14.678;2023-01-01T01:10:06;7.65;;;4.13;;
77423;SDS011;66494;47.172;14.678;2023-01-01T01:11:25;6.75;;;3.67;;
77423;SDS011;66494;47.172;14.678;2023-01-01T01:12:25;5.43;;;3.28;;
77423;SDS011;66494;47.172;14.678;2023-01-01T01:13:25;6.47;;;4.18;;
77423;SDS011;66494;47.172;14.678;2023-01-01T01:14:26;5.38;;;3.17;;
77423;SDS011;66494;47.172;14.678;2023-01-01T01:15:26;7.85;;;3.40;;
77423;SDS011;66494;47.172;14.678;2023-01-01T01:16:28;5.65;;;3.53;;
77423;SDS011;66494;47.172;14.678;2023-01-01T01:17:28;5.38;;;2.95;;
77423;SDS011;66494;47.172;14.678;2023-01-01T01:18:28;6.30;;;2.75;;
77423;SDS011;66494;47.172;14.678;2023-01-01T01:19:29;5.90;;;3.90;;
77423;SDS011;66494;47.172;14.678;2023-01-01T01:20:29;6.68;;;2.80;;
77423;SDS011;66494;47.172;14.678;2023-01-01T01:21:30;5.75;;;3.38;;
77423;SDS011;66494;47.172;14.678;2023-01-01T01:23:30;4.57;;;2.63;;
77423;SDS011;66494;47.172;14.678;2023-01-01T01:24:31;5.97;;;3.15;;
77423;SDS011;66494;47.172;14.678;2023-01-01T01:25:32;5.75;;;3.20;;
77423;SDS011;66494;47.172;14.678;2023-01-01T01:26:32;6.47;;;3.40;;
77423;SDS011;66494;47.172;14.678;2023-01-01T01:28:33;7.87;;;3.03;;
77423;SDS011;66494;47.172;14.678;2023-01-01T01:29:33;5.80;;;3.17;;
77423;SDS011;66494;47.172;14.678;2023-01-01T01:30:33;5.70;;;3.42;;
77423;SDS011;66494;47.172;14.678;2023-01-01T01:31:36;4.72;;;3.25;;
77423;SDS011;66494;47.172;14.678;2023-01-01T01:32:36;4.68;;;2.50;;
77423;SDS011;66494;47.172;14.678;2023-01-01T01:33:36;5.43;;;3.08;;
77423;SDS011;66494;47.172;14.678;2023-01-01T01:34:36;5.60;;;2.95;;
77423;SDS011;66494;47.172;14.678;2023-01-01T01:35:37;6.22;;;2.75;;
77423;SDS011;66494;47.172;14.678;2023-01-01T01:36:37;4.47;;;2.50;;
77423;SDS011;66494;47.172;14.678;2023-01-01T01:37:37;5.85;;;2.92;;
77423;SDS011;66494;47.172;14.678;2023-01-01T01:38:37;4.10;;;2.15;;
77423;SDS011;66494;47.172;14.678;2023-01-01T01:39:38;6.90;;;3.75;;
77423;SDS011;66494;47.172;14.678;2023-01-01T01:40:41;6.40;;;3.15;;
77423;SDS011;66494;47.172;14.678;2023-01-01T01:41:41;5.15;;;2.60;;
77423;SDS011;66494;47.172;14.678;2023-01-01T01:42:44;5.00;;;3.25;;
77423;SDS011;66494;47.172;14.678;2023-01-01T01:43:45;6.68;;;3.50;;
77423;SDS011;66494;47.172;14.678;2023-01-01T01:44:50;4.82;;;2.80;;
77423;SDS011;66494;47.172;14.678;2023-01-01T01:45:54;5.95;;;2.40;;
77423;SDS011;66494;47.172;14.678;2023-01-01T01:46:55;5.63;;;3.10;;
77423;SDS011;66494;47.172;14.678;2023-01-01T01:47:57;5.78;;;4.13;;
77423;SDS011;66494;47.172;14.678;2023-01-01T01:48:59;5.43;;;3.20;;
77423;SDS011;66494;47.172;14.678;2023-01-01T01:50:18;5.82;;;3.38;;
77423;SDS011;66494;47.172;14.678;2023-01-01T01:51:22;5.95;;;3.78;;
77423;SDS011;66494;47.172;14.678;2023-01-01T01:52:23;6.20;;;4.00;;
77423;SDS011;66494;47.172;14.678;2023-01-01T01:53:25;5.97;;;2.92;;
77423;SDS011;66494;47.172;14.678;2023-01-01T01:54:27;6.10;;;2.90;;
77423;SDS011;66494;47.172;14.678;2023-01-01T01:55:28;5.50;;;3.25;;
77423;SDS011;66494;47.172;14.678;2023-01-01T01:56:36;5.32;;;3.33;;
77423;SDS011;66494;47.172;14.678;2023-01-01T01:57:38;6.05;;;3.22;;
77423;SDS011;66494;47.172;14.678;2023-01-01T01:58:39;4.35;;;2.50;;
77423;SDS011;66494;47.172;14.678;2023-01-01T01:59:41;7.00;;;3.92;;
77423;SDS011;66494;47.172;14.678;2023-01-01T02:00:43;7.53;;;3.47;;
77423;SDS011;66494;47.172;14.678;2023-01-01T02:01:43;6.75;;;4.22;;
77423;SDS011;66494;47.172;14.678;2023-01-01T02:02:47;6.85;;;3.72;;
77423;SDS011;66494;47.172;14.678;2023-01-01T02:03:52;3.53;;;2.22;;
77423;SDS011;66494;47.172;14.678;2023-01-01T02:04:54;7.55;;;3.85;;
77423;SDS011;66494;47.172;14.678;2023-01-01T02:05:55;7.55;;;3.92;;
77423;SDS011;66494;47.172;14.678;2023-01-01T02:06:55;7.95;;;3.83;;
77423;SDS011;66494;47.172;14.678;2023-01-01T02:07:55;8.05;;;3.33;;
77423;SDS011;66494;47.172;14.678;2023-01-01T02:08:58;5.68;;;3.30;;
77423;SDS011;66494;47.172;14.678;2023-01-01T02:10:00;7.45;;;4.15;;
77423;SDS011;66494;47.172;14.678;2023-01-01T02:11:00;5.97;;;3.05;;
77423;SDS011;66494;47.172;14.678;2023-01-01T02:12:00;6.53;;;4.07;;
77423;SDS011;66494;47.172;14.678;2023-01-01T02:13:01;5.07;;;3.33;;
77423;SDS011;66494;47.172;14.678;2023-01-01T02:14:01;6.82;;;3.80;;
77423;SDS011;66494;47.172;14.678;2023-01-01T02:15:02;6.13;;;3.28;;
77423;SDS011;66494;47.172;14.678;2023-01-01T02:16:06;4.82;;;2.65;;
77423;SDS011;66494;47.172;14.678;2023-01-01T02:17:12;4.18;;;2.38;;
77423;SDS011;66494;47.172;14.678;2023-01-01T02:18:14;6.32;;;2.90;;
77423;SDS011;66494;47.172;14.678;2023-01-01T02:20:20;5.97;;;2.85;;
77423;SDS011;66494;47.172;14.678;2023-01-01T02:21:24;3.25;;;2.35;;
77423;SDS011;66494;47.172;14.678;2023-01-01T02:22:27;6.20;;;2.97;;
77423;SDS011;66494;47.172;14.678;2023-01-01T02:27:14;5.97;;;3.55;;
77423;SDS011;66494;47.172;14.678;2023-01-01T02:30:16;8.77;;;4.43;;
77423;SDS011;66494;47.172;14.678;2023-01-01T02:31:19;8.32;;;3.90;;
77423;SDS011;66494;47.172;14.678;2023-01-01T02:33:37;7.03;;;3.58;;
77423;SDS011;66494;47.172;14.678;2023-01-01T02:35:38;5.78;;;4.15;;
77423;SDS011;66494;47.172;14.678;2023-01-01T02:36:43;6.35;;;3.33;;
77423;SDS011;66494;47.172;14.678;2023-01-01T02:37:46;7.35;;;3.75;;
77423;SDS011;66494;47.172;14.678;2023-01-01T02:38:49;7.07;;;4.30;;
77423;SDS011;66494;47.172;14.678;2023-01-01T02:39:51;5.60;;;3.10;;
77423;SDS011;66494;47.172;14.678;2023-01-01T02:40:57;8.30;;;4.15;;
77423;SDS011;66494;47.172;14.678;2023-01-01T02:41:59;7.20;;;3.60;;
77423;SDS011;66494;47.172;14.678;2023-01-01T02:43:01;6.20;;;3.65;;
77423;SDS011;66494;47.172;14.678;2023-01-01T02:44:02;5.40;;;3.33;;
77423;SDS011;66494;47.172;14.678;2023-01-01T02:45:03;5.90;;;3.67;;
77423;SDS011;66494;47.172;14.678;2023-01-01T02:46:04;6.28;;;4.18;;
77423;SDS011;66494;47.172;14.678;2023-01-01T02:47:05;7.07;;;3.50;;
77423;SDS011;66494;47.172;14.678;2023-01-01T02:49:06;6.70;;;3.17;;
77423;SDS011;66494;47.172;14.678;2023-01-01T02:52:35;4.40;;;3.00;;
77423;SDS011;66494;47.172;14.678;2023-01-01T02:53:31;10.45;;;3.10;;
77423;SDS011;66494;47.172;14.678;2023-01-01T02:56:07;5.45;;;2.72;;
77423;SDS011;66494;47.172;14.678;2023-01-01T02:57:30;6.68;;;3.15;;
77423;SDS011;66494;47.172;14.678;2023-01-01T03:00:24;4.75;;;2.70;;
77423;SDS011;66494;47.172;14.678;2023-01-01T03:03:39;5.05;;;2.85;;
77423;SDS011;66494;47.172;14.678;2023-01-01T03:06:00;4.63;;;2.60;;
77423;SDS011;66494;47.172;14.678;2023-01-01T03:08:22;5.70;;;3.10;;
77423;SDS011;66494;47.172;14.678;2023-01-01T03:09:27;7.13;;;3.42;;
77423;SDS011;66494;47.172;14.678;2023-01-01T03:10:44;7.63;;;3.75;;
77423;SDS011;66494;47.172;14.678;2023-01-01T03:13:33;5.53;;;3.10;;
77423;SDS011;66494;47.172;14.678;2023-01-01T03:16:33;6.20;;;3.40;;
77423;SDS011;66494;47.172;14.678;2023-01-01T03:17:36;4.85;;;2.80;;
77423;SDS011;66494;47.172;14.678;2023-01-01T03:18:40;6.57;;;2.90;;
77423;SDS011;66494;47.172;14.678;2023-01-01T03:19:41;3.03;;;1.67;;
77423;SDS011;66494;47.172;14.678;2023-01-01T03:20:43;6.93;;;2.67;;
77423;SDS011;66494;47.172;14.678;2023-01-01T03:21:57;8.50;;;3.60;;
77423;SDS011;66494;47.172;14.678;2023-01-01T03:23:01;5.35;;;3.10;;
77423;SDS011;66494;47.172;14.678;2023-01-01T03:24:02;4.85;;;2.88;;
77423;SDS011;66494;47.172;14.678;2023-01-01T03:26:05;3.47;;;1.77;;
77423;SDS011;66494;47.172;14.678;2023-01-01T03:27:08;4.55;;;2.95;;
77423;SDS011;66494;47.172;14.678;2023-01-01T03:28:13;4.43;;;2.88;;
77423;SDS011;66494;47.172;14.678;2023-01-01T03:29:15;5.05;;;2.75;;
77423;SDS011;66494;47.172;14.678;2023-01-01T03:31:17;5.95;;;2.83;;
77423;SDS011;66494;47.172;14.678;2023-01-01T03:33:01;6.22;;;2.63;;
77423;SDS011;66494;47.172;14.678;2023-01-01T03:34:00;5.18;;;3.00;;
77423;SDS011;66494;47.172;14.678;2023-01-01T03:35:02;5.60;;;2.95;;
77423;SDS011;66494;47.172;14.678;2023-01-01T03:36:07;5.82;;;2.90;;
77423;SDS011;66494;47.172;14.678;2023-01-01T03:37:11;5.90;;;3.45;;
77423;SDS011;66494;47.172;14.678;2023-01-01T03:39:29;5.93;;;3.25;;
77423;SDS011;66494;47.172;14.678;2023-01-01T03:40:31;6.25;;;3.30;;
77423;SDS011;66494;47.172;14.678;2023-01-01T03:41:45;4.70;;;3.03;;
77423;SDS011;66494;47.172;14.678;2023-01-01T03:42:54;8.05;;;2.97;;
77423;SDS011;66494;47.172;14.678;2023-01-01T03:44:00;3.88;;;2.10;;
77423;SDS011;66494;47.172;14.678;2023-01-01T03:45:08;5.75;;;2.95;;
77423;SDS011;66494;47.172;14.678;2023-01-01T03:46:09;4.72;;;2.67;;
77423;SDS011;66494;47.172;14.678;2023-01-01T03:47:10;5.53;;;3.47;;
77423;SDS011;66494;47.172;14.678;2023-01-01T03:48:10;5.60;;;2.72;;
77423;SDS011;66494;47.172;14.678;2023-01-01T03:49:11;5.05;;;3.20;;
77423;SDS011;66494;47.172;14.678;2023-01-01T03:50:12;4.07;;;2.40;;
77423;SDS011;66494;47.172;14.678;2023-01-01T03:52:25;4.50;;;3.20;;
77423;SDS011;66494;47.172;14.678;2023-01-01T03:53:35;5.70;;;2.80;;
77423;SDS011;66494;47.172;14.678;2023-01-01T03:55:56;5.03;;;2.78;;
77423;SDS011;66494;47.172;14.678;2023-01-01T04:00:49;6.10;;;3.08;;
77423;SDS011;66494;47.172;14.678;2023-01-01T04:01:51;4.90;;;2.55;;
77423;SDS011;66494;47.172;14.678;2023-01-01T04:03:06;3.70;;;2.30;;
77423;SDS011;66494;47.172;14.678;2023-01-01T04:04:08;6.10;;;2.92;;
77423;SDS011;66494;47.172;14.678;2023-01-01T04:05:08;5.97;;;2.78;;
77423;SDS011;66494;47.172;14.678;2023-01-01T04:06:11;3.78;;;2.22;;
77423;SDS011;66494;47.172;14.678;2023-01-01T04:07:11;6.63;;;3.17;;
77423;SDS011;66494;47.172;14.678;2023-01-01T04:08:12;3.83;;;2.40;;
77423;SDS011;66494;47.172;14.678;2023-01-01T04:09:15;5.10;;;2.85;;
77423;SDS011;66494;47.172;14.678;2023-01-01T04:10:17;5.60;;;3.00;;
77423;SDS011;66494;47.172;14.678;2023-01-01T04:11:18;5.20;;;2.92;;
77423;SDS011;66494;47.172;14.678;2023-01-01T04:12:38;5.93;;;2.95;;
77423;SDS011;66494;47.172;14.678;2023-01-01T04:13:45;3.70;;;2.20;;
77423;SDS011;66494;47.172;14.678;2023-01-01T04:14:46;4.38;;;2.20;;
77423;SDS011;66494;47.172;14.678;2023-01-01T04:15:46;3.28;;;1.80;;
77423;SDS011;66494;47.172;14.678;2023-01-01T04:16:46;6.13;;;2.97;;
77423;SDS011;66494;47.172;14.678;2023-01-01T04:17:46;6.22;;;2.67;;
77423;SDS011;66494;47.172;14.678;2023-01-01T04:18:47;5.13;;;2.58;;
77423;SDS011;66494;47.172;14.678;2023-01-01T04:19:47;4.40;;;2.63;;
77423;SDS011;66494;47.172;14.678;2023-01-01T04:20:47;4.60;;;2.58;;
77423;SDS011;66494;47.172;14.678;2023-01-01T04:21:47;8.02;;;3.35;;
77423;SDS011;66494;47.172;14.678;2023-01-01T04:22:48;4.90;;;3.13;;
77423;SDS011;66494;47.172;14.678;2023-01-01T04:23:48;4.13;;;2.20;;
77423;SDS011;66494;47.172;14.678;2023-01-01T04:24:48;2.75;;;1.48;;
77423;SDS011;66494;47.172;14.678;2023-01-01T04:25:48;4.55;;;3.10;;
77423;SDS011;66494;47.172;14.678;2023-01-01T04:26:49;3.50;;;2.05;;
77423;SDS011;66494;47.172;14.678;2023-01-01T04:27:50;6.22;;;2.80;;
77423;SDS011;66494;47.172;14.678;2023-01-01T04:28:50;2.88;;;1.85;;
77423;SDS011;66494;47.172;14.678;2023-01-01T04:29:50;4.18;;;2.65;;
77423;SDS011;66494;47.172;14.678;2023-01-01T04:30:50;5.10;;;2.80;;
77423;SDS011;66494;47.172;14.678;2023-01-01T04:31:51;5.43;;;2.80;;
77423;SDS011;66494;47.172;14.678;2023-01-01T04:32:51;4.53;;;2.42;;
77423;SDS011;66494;47.172;14.678;2023-01-01T04:33:54;4.03;;;1.60;;
77423;SDS011;66494;47.172;14.678;2023-01-01T04:34:54;3.90;;;2.47;;
77423;SDS011;66494;47.172;14.678;2023-01-01T04:35:55;4.30;;;2.22;;
77423;SDS011;66494;47.172;14.678;2023-01-01T04:36:55;5.75;;;2.75;;
77423;SDS011;66494;47.172;14.678;2023-01-01T04:37:55;3.95;;;2.22;;
77423;SDS011;66494;47.172;14.678;2023-01-01T04:38:55;3.70;;;2.40;;
77423;SDS011;66494;47.172;14.678;2023-01-01T04:39:56;4.43;;;2.25;;
77423;SDS011;66494;47.172;14.678;2023-01-01T04:40:56;5.35;;;2.55;;
77423;SDS011;66494;47.172;14.678;2023-01-01T04:41:57;3.58;;;2.15;;
77423;SDS011;66494;47.172;14.678;2023-01-01T04:42:57;6.10;;;2.53;;
77423;SDS011;66494;47.172;14.678;2023-01-01T04:43:57;3.47;;;2.08;;
77423;SDS011;66494;47.172;14.678;2023-01-01T04:44:57;5.53;;;2.92;;
77423;SDS011;66494;47.172;14.678;2023-01-01T04:45:58;3.03;;;1.95;;
77423;SDS011;66494;47.172;14.678;2023-01-01T04:46:59;3.72;;;2.25;;
77423;SDS011;66494;47.172;14.678;2023-01-01T04:48:05;6.68;;;3.15;;
77423;SDS011;66494;47.172;14.678;2023-01-01T04:49:05;4.63;;;2.10;;
77423;SDS011;66494;47.172;14.678;2023-01-01T04:50:06;5.90;;;2.65;;
77423;SDS011;66494;47.172;14.678;2023-01-01T04:51:06;3.33;;;2.45;;
77423;SDS011;66494;47.172;14.678;2023-01-01T04:52:06;4.53;;;2.50;;
77423;SDS011;66494;47.172;14.678;2023-01-01T04:53:07;4.88;;;2.25;;
77423;SDS011;66494;47.172;14.678;2023-01-01T04:54:07;4.53;;;2.50;;
77423;SDS011;66494;47.172;14.678;2023-01-01T04:55:07;3.50;;;2.22;;
77423;SDS011;66494;47.172;14.678;2023-01-01T04:56:11;4.93;;;2.55;;
77423;SDS011;66494;47.172;14.678;2023-01-01T04:57:12;8.98;;;3.63;;
77423;SDS011;66494;47.172;14.678;2023-01-01T04:58:12;4.90;;;2.88;;
77423;SDS011;66494;47.172;14.678;2023-01-01T04:59:13;4.07;;;2.42;;
77423;SDS011;66494;47.172;14.678;2023-01-01T05:00:13;6.32;;;2.60;;
77423;SDS011;66494;47.172;14.678;2023-01-01T05:01:14;5.28;;;2.30;;
77423;SDS011;66494;47.172;14.678;2023-01-01T05:02:15;4.28;;;2.63;;
77423;SDS011;66494;47.172;14.678;2023-01-01T05:03:16;4.10;;;2.30;;
77423;SDS011;66494;47.172;14.678;2023-01-01T05:04:16;6.07;;;2.45;;
77423;SDS011;66494;47.172;14.678;2023-01-01T05:05:16;4.00;;;2.50;;
77423;SDS011;66494;47.172;14.678;2023-01-01T05:06:18;5.38;;;2.42;;
77423;SDS011;66494;47.172;14.678;2023-01-01T05:07:18;3.88;;;2.67;;
77423;SDS011;66494;47.172;14.678;2023-01-01T05:08:18;4.85;;;3.05;;
77423;SDS011;66494;47.172;14.678;2023-01-01T05:09:18;5.50;;;2.55;;
77423;SDS011;66494;47.172;14.678;2023-01-01T05:10:18;4.97;;;2.13;;
77423;SDS011;66494;47.172;14.678;2023-01-01T05:11:22;4.30;;;2.45;;
77423;SDS011;66494;47.172;14.678;2023-01-01T05:12:23;4.95;;;2.50;;
77423;SDS011;66494;47.172;14.678;2023-01-01T05:13:23;4.13;;;2.30;;
77423;SDS011;66494;47.172;14.678;2023-01-01T05:14:23;6.28;;;2.83;;
77423;SDS011;66494;47.172;14.678;2023-01-01T05:15:24;6.13;;;3.17;;
77423;SDS011;66494;47.172;14.678;2023-01-01T05:16:31;7.57;;;3.00;;
77423;SDS011;66494;47.172;14.678;2023-01-01T05:17:31;5.38;;;2.42;;
77423;SDS011;66494;47.172;14.678;2023-01-01T05:18:32;4.18;;;2.38;;
77423;SDS011;66494;47.172;14.678;2023-01-01T05:19:32;4.78;;;1.65;;
77423;SDS011;66494;47.172;14.678;2023-01-01T05:20:33;6.57;;;2.42;;
77423;SDS011;66494;47.172;14.678;2023-01-01T05:21:34;5.00;;;2.40;;
77423;SDS011;66494;47.172;14.678;2023-01-01T05:22:35;4.85;;;2.50;;
77423;SDS011;66494;47.172;14.678;2023-01-01T05:23:35;5.05;;;2.38;;
77423;SDS011;66494;47.172;14.678;2023-01-01T05:24:36;3.75;;;2.03;;
77423;SDS011;66494;47.172;14.678;2023-01-01T05:25:36;5.68;;;2.80;;
77423;SDS011;66494;47.172;14.678;2023-01-01T05:26:37;5.28;;;2.53;;
77423;SDS011;66494;47.172;14.678;2023-01-01T05:27:38;4.57;;;2.47;;
77423;SDS011;66494;47.172;14.678;2023-01-01T05:28:38;6.90;;;3.13;;
77423;SDS011;66494;47.172;14.678;2023-01-01T05:29:38;4.65;;;2.28;;
77423;SDS011;66494;47.172;14.678;2023-01-01T05:30:39;4.10;;;2.40;;
77423;SDS011;66494;47.172;14.678;2023-01-01T05:31:39;4.20;;;2.50;;
77423;SDS011;66494;47.172;14.678;2023-01-01T05:33:40;5.10;;;2.13;;
77423;SDS011;66494;47.172;14.678;2023-01-01T05:35:40;6.35;;;2.55;;
77423;SDS011;66494;47.172;14.678;2023-01-01T05:36:40;5.07;;;2.38;;
77423;SDS011;66494;47.172;14.678;2023-01-01T05:37:41;4.32;;;2.05;;
77423;SDS011;66494;47.172;14.678;2023-01-01T05:38:41;4.40;;;2.30;;
77423;SDS011;66494;47.172;14.678;2023-01-01T05:39:41;3.90;;;1.92;;
77423;SDS011;66494;47.172;14.678;2023-01-01T05:40:41;4.72;;;2.28;;
77423;SDS011;66494;47.172;14.678;2023-01-01T05:41:41;6.75;;;2.83;;
77423;SDS011;66494;47.172;14.678;2023-01-01T05:42:42;4.05;;;1.95;;
77423;SDS011;66494;47.172;14.678;2023-01-01T05:43:42;3.30;;;2.38;;
77423;SDS011;66494;47.172;14.678;2023-01-01T05:44:42;5.35;;;2.28;;
77423;SDS011;66494;47.172;14.678;2023-01-01T05:45:43;4.43;;;2.40;;
77423;SDS011;66494;47.172;14.678;2023-01-01T05:46:43;4.47;;;2.22;;
77423;SDS011;66494;47.172;14.678;2023-01-01T05:47:44;3.00;;;1.77;;
77423;SDS011;66494;47.172;14.678;2023-01-01T05:48:44;2.85;;;1.45;;
77423;SDS011;66494;47.172;14.678;2023-01-01T05:49:44;5.65;;;2.80;;
77423;SDS011;66494;47.172;14.678;2023-01-01T05:50:45;4.50;;;2.47;;
77423;SDS011;66494;47.172;14.678;2023-01-01T05:51:45;2.83;;;1.52;;
77423;SDS011;66494;47.172;14.678;2023-01-01T05:52:45;3.33;;;2.33;;
77423;SDS011;66494;47.172;14.678;2023-01-01T05:53:45;3.55;;;2.22;;
77423;SDS011;66494;47.172;14.678;2023-01-01T05:54:46;4.35;;;2.78;;
77423;SDS011;66494;47.172;14.678;2023-01-01T05:55:51;5.88;;;2.78;;
77423;SDS011;66494;47.172;14.678;2023-01-01T05:56:51;3.83;;;2.25;;
77423;SDS011;66494;47.172;14.678;2023-01-01T05:58:51;3.88;;;2.00;;
77423;SDS011;66494;47.172;14.678;2023-01-01T05:59:52;2.65;;;1.50;;
77423;SDS011;66494;47.172;14.678;2023-01-01T06:00:52;3.25;;;1.40;;
77423;SDS011;66494;47.172;14.678;2023-01-01T06:01:52;5.82;;;3.00;;
77423;SDS011;66494;47.172;14.678;2023-01-01T06:02:53;4.28;;;1.77;;
77423;SDS011;66494;47.172;14.678;2023-01-01T06:03:54;4.40;;;2.15;;
77423;SDS011;66494;47.172;14.678;2023-01-01T06:04:54;4.90;;;2.35;;
77423;SDS011;66494;47.172;14.678;2023-01-01T06:05:55;3.92;;;2.38;;
77423;SDS011;66494;47.172;14.678;2023-01-01T06:06:55;5.82;;;2.80;;
77423;SDS011;66494;47.172;14.678;2023-01-01T06:07:55;3.65;;;2.28;;
77423;SDS011;66494;47.172;14.678;2023-01-01T06:08:59;5.03;;;2.85;;
77423;SDS011;66494;47.172;14.678;2023-01-01T06:10:00;3.95;;;2.63;;
77423;SDS011;66494;47.172;14.678;2023-01-01T06:12:00;3.83;;;2.72;;
77423;SDS011;66494;47.172;14.678;2023-01-01T06:14:00;2.90;;;1.67;;
77423;SDS011;66494;47.172;14.678;2023-01-01T06:15:00;3.35;;;1.65;;
77423;SDS011;66494;47.172;14.678;2023-01-01T06:16:01;5.80;;;3.33;;
77423;SDS011;66494;47.172;14.678;2023-01-01T06:17:01;6.28;;;2.58;;
77423;SDS011;66494;47.172;14.678;2023-01-01T06:18:01;4.35;;;2.72;;
77423;SDS011;66494;47.172;14.678;2023-01-01T06:19:02;7.07;;;3.67;;
77423;SDS011;66494;47.172;14.678;2023-01-01T06:20:02;7.78;;;3.10;;
77423;SDS011;66494;47.172;14.678;2023-01-01T06:21:06;5.50;;;2.67;;
77423;SDS011;66494;47.172;14.678;2023-01-01T06:22:06;6.63;;;3.65;;
77423;SDS011;66494;47.172;14.678;2023-01-01T06:24:07;4.07;;;2.33;;
77423;SDS011;66494;47.172;14.678;2023-01-01T06:25:07;3.38;;;2.05;;
77423;SDS011;66494;47.172;14.678;2023-01-01T06:26:09;4.78;;;2.22;;
77423;SDS011;66494;47.172;14.678;2023-01-01T06:27:09;5.95;;;2.38;;
77423;SDS011;66494;47.172;14.678;2023-01-01T06:29:10;7.03;;;2.85;;
77423;SDS011;66494;47.172;14.678;2023-01-01T06:30:10;4.25;;;2.53;;
77423;SDS011;66494;47.172;14.678;2023-01-01T06:31:11;5.47;;;2.20;;
77423;SDS011;66494;47.172;14.678;2023-01-01T06:32:11;4.97;;;2.45;;
77423;SDS011;66494;47.172;14.678;2023-01-01T06:33:11;4.93;;;2.50;;
77423;SDS011;66494;47.172;14.678;2023-01-01T06:34:12;4.75;;;2.20;;
77423;SDS011;66494;47.172;14.678;2023-01-01T06:35:12;4.30;;;2.60;;
77423;SDS011;66494;47.172;14.678;2023-01-01T06:36:13;4.35;;;2.53;;
77423;SDS011;66494;47.172;14.678;2023-01-01T06:37:14;4.55;;;2.33;;
77423;SDS011;66494;47.172;14.678;2023-01-01T06:39:14;7.30;;;2.05;;
77423;SDS011;66494;47.172;14.678;2023-01-01T06:40:14;4.07;;;2.33;;
77423;SDS011;66494;47.172;14.678;2023-01-01T06:41:16;7.18;;;2.65;;
77423;SDS011;66494;47.172;14.678;2023-01-01T06:42:16;6.30;;;2.65;;
77423;SDS011;66494;47.172;14.678;2023-01-01T06:44:17;5.05;;;2.45;;
77423;SDS011;66494;47.172;14.678;2023-01-01T06:46:19;2.65;;;1.48;;
77423;SDS011;66494;47.172;14.678;2023-01-01T06:47:19;3.83;;;2.38;;
77423;SDS011;66494;47.172;14.678;2023-01-01T06:49:19;4.50;;;2.15;;
77423;SDS011;66494;47.172;14.678;2023-01-01T06:50:20;4.13;;;2.08;;
77423;SDS011;66494;47.172;14.678;2023-01-01T06:51:21;4.60;;;2.47;;
77423;SDS011;66494;47.172;14.678;2023-01-01T06:52:22;5.63;;;2.58;;
77423;SDS011;66494;47.172;14.678;2023-01-01T06:54:22;2.33;;;1.25;;
77423;SDS011;66494;47.172;14.678;2023-01-01T06:55:22;3.90;;;1.50;;